Terminal Aerodrome Forecast
Issued by NWS Melbourne, FL

Home | Current Version | Previous Version | Text Only | Print | Product List | Glossary On
Versions: 1 2 3 4 5 6 7 8 9 10 11 12 13 14 15 16 17 18 19 20 21
000
FTUS42 KMLB 251732
TAFVRB
TAF
KVRB 251732Z 2518/2618 30007KT P6SM SCT035
     FM252000 03007KT P6SM SCT035
     FM260600 VRB03KT P6SM FEW015
     FM261400 33004KT P6SM FEW025=

USA.gov is the U.S. government's official web portal to all federal, state and local government web resources and services.